Flight Track Log - Related Links

Times and Time Zones

All times are in EDT time to prevent confusion due to time zone crossing. See the N1926Y flight status page for this flight to view local times or setup timezone preferences in your user account.

Time Position Orientation Groundspeed Altitude Reporting Facility
EDT Latitude Longitude Course Direction KTS MPH feet Rate Location/Type
Sun 06:43:34 PM 41.5333 -74.0833 323° Northwest 123 142 2,400  Level New York TRACON
Sun 06:44:29 PM 41.5333 -74.1167 270° West 114 131 2,900 574 Climbing New York TRACON
Sun 06:45:29 PM 41.5333 -74.1667 270° West 104 120 3,500 550 Climbing New York TRACON
Sun 06:46:29 PM 41.5167 -74.2000 236° Southwest 98 113 4,000 250 Climbing New York TRACON
Sun 06:47:29 PM 41.5167 -74.2333 270° West 113 130 4,000  Level New York TRACON
Sun 06:48:29 PM 41.5000 -74.2667 236° Southwest 122 140 4,000  Level New York TRACON
Sun 06:49:29 PM 41.4833 -74.3000 236° Southwest 121 139 4,000  Level New York TRACON
Sun 06:50:34 PM 41.4333 -74.3167 194° South 121 139 4,000  Level New York TRACON
Sun 06:51:29 PM 41.4167 -74.3167 180° South 120 138 4,000  Level New York TRACON
Sun 06:52:29 PM 41.3833 -74.3333 201° Southwest 118 136 4,000  Level New York TRACON
Sun 06:53:35 PM 41.3500 -74.3167 159° South 125 144 4,000  Level New York TRACON
Sun 06:54:35 PM 41.3167 -74.3000 159° South 125 144 4,000  Level New York TRACON
Sun 06:55:35 PM 41.2833 -74.2833 159° South 124 143 4,000 -53 Level New York TRACON
Sun 06:56:29 PM 41.2500 -74.2833 180° South 123 142 3,900 -300 Descending New York TRACON
Sun 06:57:35 PM 41.2167 -74.2667 159° South 90 104 3,400 -429 Descending New York TRACON
Sun 06:58:35 PM 41.2000 -74.2833 217° Southwest 95 109 3,000 -200 Descending New York TRACON
Sun 06:59:35 PM 41.1667 -74.3000 201° Southwest 100 115 3,000  Level New York TRACON
Sun 07:00:35 PM 41.1500 -74.3167 217° Southwest 117 135 3,000  Level New York TRACON
Sun 07:01:35 PM 41.1167 -74.3500 217° Southwest 141 162 3,000  Level New York TRACON
Sun 07:02:29 PM 41.1000 -74.3500 180° South 125 144 3,000  Level New York TRACON
Sun 07:03:35 PM 41.0833 -74.3000 114° Southeast 122 140 3,000  Level New York TRACON
Sun 07:04:35 PM 41.0833 -74.2500 90° East 118 136 3,000  Level New York TRACON
Sun 07:05:35 PM 41.0833 -74.2167 90° East 129 148 3,000 -150 Level New York TRACON
Sun 07:06:35 PM 41.0500 -74.1833 143° Southeast 118 136 2,700 -500 Descending New York TRACON
Sun 07:07:35 PM 41.0333 -74.1667 143° Southeast 136 157 2,000 -300 Descending New York TRACON
Sun 07:08:35 PM 41.0000 -74.1833 201° Southwest 129 148 2,100 50 Climbing New York TRACON
Sun 07:09:35 PM 40.9833 -74.2000 217° Southwest 95 109 2,100  Level New York TRACON
Sun 07:10:35 PM 40.9500 -74.2167 201° Southwest 90 104 2,100 -263 Level New York TRACON
Sun 07:11:29 PM 40.9333 -74.2333 217° Southwest 104 120 1,600 -526 Descending New York TRACON
Sun 07:12:29 PM 40.9167 -74.2500 217° Southwest 85 98 1,100 -300 Descending New York TRACON
Sun 07:13:29 PM 40.9000 -74.2667 217° Southwest 83 96 1,000 -100 Descending New York TRACON
Sun 07:15:00 PM 40.8667 -74.2667 128° Southeast  Level FlightAware Approximate
Sun 07:22:00 PM 40.8752 -74.2814 128° Southeast  Level Estimated
Sun 07:23:00 PM 40.8752 -74.2814 128° Southeast  Level Estimated
Sun 07:24:00 PM 40.8752 -74.2814 128° Southeast  Level Estimated

Login

Don't have an account? Register now (free) for customized features, flight alerts, and more!